sensor_id;sensor_type;location;lat;lon;timestamp;temperature;humidity
18932;DHT22;9598;50.954;3.112;2022-09-09T00:03:44;17.70;99.90
18932;DHT22;9598;50.954;3.112;2022-09-09T00:08:57;17.70;99.90
18932;DHT22;9598;50.954;3.112;2022-09-09T00:14:08;17.70;99.90
18932;DHT22;9598;50.954;3.112;2022-09-09T00:19:20;17.70;99.90
18932;DHT22;9598;50.954;3.112;2022-09-09T00:24:27;17.60;99.90
18932;DHT22;9598;50.954;3.112;2022-09-09T00:29:38;17.60;99.90
18932;DHT22;9598;50.954;3.112;2022-09-09T00:34:47;17.60;99.90
18932;DHT22;9598;50.954;3.112;2022-09-09T00:39:51;17.50;99.90
18932;DHT22;9598;50.954;3.112;2022-09-09T00:45:05;17.40;99.90
18932;DHT22;9598;50.954;3.112;2022-09-09T00:55:39;17.40;99.90
18932;DHT22;9598;50.954;3.112;2022-09-09T01:00:47;17.40;99.90
18932;DHT22;9598;50.954;3.112;2022-09-09T01:05:59;17.40;99.90
18932;DHT22;9598;50.954;3.112;2022-09-09T01:11:02;17.40;99.90
18932;DHT22;9598;50.954;3.112;2022-09-09T01:16:10;17.40;99.90
18932;DHT22;9598;50.954;3.112;2022-09-09T01:21:21;17.40;99.90
18932;DHT22;9598;50.954;3.112;2022-09-09T01:26:28;17.40;99.90
18932;DHT22;9598;50.954;3.112;2022-09-09T01:31:38;17.30;99.90
18932;DHT22;9598;50.954;3.112;2022-09-09T01:36:44;17.30;99.90
18932;DHT22;9598;50.954;3.112;2022-09-09T01:41:50;17.20;99.90
18932;DHT22;9598;50.954;3.112;2022-09-09T01:46:54;17.30;99.90
18932;DHT22;9598;50.954;3.112;2022-09-09T01:51:58;17.20;99.90
18932;DHT22;9598;50.954;3.112;2022-09-09T01:57:15;17.20;99.90
18932;DHT22;9598;50.954;3.112;2022-09-09T02:02:26;17.20;99.90
18932;DHT22;9598;50.954;3.112;2022-09-09T02:07:53;17.30;99.90
18932;DHT22;9598;50.954;3.112;2022-09-09T02:13:09;17.30;99.90
18932;DHT22;9598;50.954;3.112;2022-09-09T02:18:14;17.30;99.90
18932;DHT22;9598;50.954;3.112;2022-09-09T02:23:19;17.30;99.90
18932;DHT22;9598;50.954;3.112;2022-09-09T02:28:28;17.30;99.90
18932;DHT22;9598;50.954;3.112;2022-09-09T02:33:41;17.30;99.90
18932;DHT22;9598;50.954;3.112;2022-09-09T02:38:46;17.30;99.90
18932;DHT22;9598;50.954;3.112;2022-09-09T02:43:53;17.20;99.90
18932;DHT22;9598;50.954;3.112;2022-09-09T02:49:00;17.20;99.90
18932;DHT22;9598;50.954;3.112;2022-09-09T02:54:12;17.20;99.90
18932;DHT22;9598;50.954;3.112;2022-09-09T02:59:19;17.20;99.90
18932;DHT22;9598;50.954;3.112;2022-09-09T03:04:22;17.20;99.90
18932;DHT22;9598;50.954;3.112;2022-09-09T03:09:26;17.20;99.90
18932;DHT22;9598;50.954;3.112;2022-09-09T03:14:30;17.20;99.90
18932;DHT22;9598;50.954;3.112;2022-09-09T03:19:32;17.10;99.90
18932;DHT22;9598;50.954;3.112;2022-09-09T03:24:36;17.20;99.90
18932;DHT22;9598;50.954;3.112;2022-09-09T03:29:40;17.20;99.90
18932;DHT22;9598;50.954;3.112;2022-09-09T03:34:47;17.20;99.90
18932;DHT22;9598;50.954;3.112;2022-09-09T03:39:50;17.20;99.90
18932;DHT22;9598;50.954;3.112;2022-09-09T03:44:57;17.20;99.90
18932;DHT22;9598;50.954;3.112;2022-09-09T03:50:00;17.20;99.90
18932;DHT22;9598;50.954;3.112;2022-09-09T03:55:05;17.20;99.90
18932;DHT22;9598;50.954;3.112;2022-09-09T04:00:11;17.20;99.90
18932;DHT22;9598;50.954;3.112;2022-09-09T04:05:18;17.20;99.90
18932;DHT22;9598;50.954;3.112;2022-09-09T04:10:22;17.20;99.90
18932;DHT22;9598;50.954;3.112;2022-09-09T04:15:26;17.10;99.90
18932;DHT22;9598;50.954;3.112;2022-09-09T04:20:28;17.10;99.90
18932;DHT22;9598;50.954;3.112;2022-09-09T04:25:31;17.10;99.90
18932;DHT22;9598;50.954;3.112;2022-09-09T04:30:36;17.00;99.90
18932;DHT22;9598;50.954;3.112;2022-09-09T04:35:45;17.00;99.90
18932;DHT22;9598;50.954;3.112;2022-09-09T04:40:50;17.00;99.90
18932;DHT22;9598;50.954;3.112;2022-09-09T04:45:56;16.90;99.90
18932;DHT22;9598;50.954;3.112;2022-09-09T04:51:01;16.90;99.90
18932;DHT22;9598;50.954;3.112;2022-09-09T04:56:07;16.90;99.90
18932;DHT22;9598;50.954;3.112;2022-09-09T05:01:17;16.80;99.90
18932;DHT22;9598;50.954;3.112;2022-09-09T05:06:21;16.70;99.90
18932;DHT22;9598;50.954;3.112;2022-09-09T05:11:29;16.70;99.90
18932;DHT22;9598;50.954;3.112;2022-09-09T05:17:06;16.70;99.90
18932;DHT22;9598;50.954;3.112;2022-09-09T05:22:10;16.80;99.90
18932;DHT22;9598;50.954;3.112;2022-09-09T05:27:18;16.80;99.90
18932;DHT22;9598;50.954;3.112;2022-09-09T05:32:23;16.70;99.90
18932;DHT22;9598;50.954;3.112;2022-09-09T05:37:26;16.80;99.90
18932;DHT22;9598;50.954;3.112;2022-09-09T05:42:30;16.70;99.90
18932;DHT22;9598;50.954;3.112;2022-09-09T05:47:34;16.70;99.90
18932;DHT22;9598;50.954;3.112;2022-09-09T05:52:38;16.70;99.90
18932;DHT22;9598;50.954;3.112;2022-09-09T05:57:41;16.70;99.90
18932;DHT22;9598;50.954;3.112;2022-09-09T06:02:50;16.70;99.90
18932;DHT22;9598;50.954;3.112;2022-09-09T06:07:54;16.70;99.90
18932;DHT22;9598;50.954;3.112;2022-09-09T06:12:57;16.70;99.90
18932;DHT22;9598;50.954;3.112;2022-09-09T06:18:00;16.70;99.90
18932;DHT22;9598;50.954;3.112;2022-09-09T06:23:03;16.70;99.90
18932;DHT22;9598;50.954;3.112;2022-09-09T06:28:06;16.70;99.90
18932;DHT22;9598;50.954;3.112;2022-09-09T06:33:10;16.70;99.90
18932;DHT22;9598;50.954;3.112;2022-09-09T06:38:12;16.70;99.90
18932;DHT22;9598;50.954;3.112;2022-09-09T06:43:15;16.60;99.90
18932;DHT22;9598;50.954;3.112;2022-09-09T06:48:24;16.60;99.90
18932;DHT22;9598;50.954;3.112;2022-09-09T06:53:28;16.60;99.90
18932;DHT22;9598;50.954;3.112;2022-09-09T06:58:32;16.50;99.90
18932;DHT22;9598;50.954;3.112;2022-09-09T07:03:36;16.60;99.90
18932;DHT22;9598;50.954;3.112;2022-09-09T07:08:39;16.40;99.90
18932;DHT22;9598;50.954;3.112;2022-09-09T07:13:41;16.40;99.90
18932;DHT22;9598;50.954;3.112;2022-09-09T07:18:45;16.40;99.90
18932;DHT22;9598;50.954;3.112;2022-09-09T07:23:48;16.50;99.90
18932;DHT22;9598;50.954;3.112;2022-09-09T07:28:51;16.50;99.90
18932;DHT22;9598;50.954;3.112;2022-09-09T07:33:55;16.40;99.90
18932;DHT22;9598;50.954;3.112;2022-09-09T07:38:59;16.50;99.90
18932;DHT22;9598;50.954;3.112;2022-09-09T07:44:08;16.50;99.90
18932;DHT22;9598;50.954;3.112;2022-09-09T07:49:14;16.50;99.90
18932;DHT22;9598;50.954;3.112;2022-09-09T07:54:18;16.50;99.90
18932;DHT22;9598;50.954;3.112;2022-09-09T07:59:24;16.60;99.90
18932;DHT22;9598;50.954;3.112;2022-09-09T08:04:30;16.60;99.90
18932;DHT22;9598;50.954;3.112;2022-09-09T08:09:32;16.60;99.90
18932;DHT22;9598;50.954;3.112;2022-09-09T08:15:00;16.70;99.90
18932;DHT22;9598;50.954;3.112;2022-09-09T08:20:08;16.70;99.90
18932;DHT22;9598;50.954;3.112;2022-09-09T08:25:13;16.80;99.90
18932;DHT22;9598;50.954;3.112;2022-09-09T08:30:16;16.80;99.90
18932;DHT22;9598;50.954;3.112;2022-09-09T08:35:19;16.90;99.90
18932;DHT22;9598;50.954;3.112;2022-09-09T08:40:28;17.00;99.90
18932;DHT22;9598;50.954;3.112;2022-09-09T08:45:34;17.20;99.90
18932;DHT22;9598;50.954;3.112;2022-09-09T08:50:45;17.30;99.90
18932;DHT22;9598;50.954;3.112;2022-09-09T08:55:56;17.50;99.90
18932;DHT22;9598;50.954;3.112;2022-09-09T09:01:22;17.70;99.90
18932;DHT22;9598;50.954;3.112;2022-09-09T09:06:43;17.80;99.90
18932;DHT22;9598;50.954;3.112;2022-09-09T09:11:50;17.90;99.90
18932;DHT22;9598;50.954;3.112;2022-09-09T09:16:56;17.90;99.90
18932;DHT22;9598;50.954;3.112;2022-09-09T09:22:11;17.90;99.90
18932;DHT22;9598;50.954;3.112;2022-09-09T09:27:21;17.90;99.90
18932;DHT22;9598;50.954;3.112;2022-09-09T09:32:33;17.90;99.90
18932;DHT22;9598;50.954;3.112;2022-09-09T09:37:37;17.90;99.90
18932;DHT22;9598;50.954;3.112;2022-09-09T09:42:49;18.00;99.90
18932;DHT22;9598;50.954;3.112;2022-09-09T09:47:58;18.00;99.90
18932;DHT22;9598;50.954;3.112;2022-09-09T09:53:04;18.10;99.90
18932;DHT22;9598;50.954;3.112;2022-09-09T09:58:15;18.30;99.90
18932;DHT22;9598;50.954;3.112;2022-09-09T10:03:22;18.30;99.90
18932;DHT22;9598;50.954;3.112;2022-09-09T10:08:28;18.20;99.90
18932;DHT22;9598;50.954;3.112;2022-09-09T10:13:34;18.30;99.90
18932;DHT22;9598;50.954;3.112;2022-09-09T10:18:54;18.20;99.90
18932;DHT22;9598;50.954;3.112;2022-09-09T10:24:17;18.30;99.90
18932;DHT22;9598;50.954;3.112;2022-09-09T10:29:45;18.30;99.90
18932;DHT22;9598;50.954;3.112;2022-09-09T10:34:56;18.40;99.90
18932;DHT22;9598;50.954;3.112;2022-09-09T10:40:14;18.40;99.90
18932;DHT22;9598;50.954;3.112;2022-09-09T10:45:23;18.60;99.90
18932;DHT22;9598;50.954;3.112;2022-09-09T10:50:49;18.60;99.90
18932;DHT22;9598;50.954;3.112;2022-09-09T10:55:57;18.60;99.90
18932;DHT22;9598;50.954;3.112;2022-09-09T11:01:05;18.60;99.90
18932;DHT22;9598;50.954;3.112;2022-09-09T11:06:14;18.70;99.90
18932;DHT22;9598;50.954;3.112;2022-09-09T11:11:22;18.70;99.90
18932;DHT22;9598;50.954;3.112;2022-09-09T11:16:29;18.80;99.90
18932;DHT22;9598;50.954;3.112;2022-09-09T11:21:38;18.80;99.90
18932;DHT22;9598;50.954;3.112;2022-09-09T11:26:46;19.00;99.90
18932;DHT22;9598;50.954;3.112;2022-09-09T11:32:00;19.20;99.90
18932;DHT22;9598;50.954;3.112;2022-09-09T11:37:16;19.40;99.90
18932;DHT22;9598;50.954;3.112;2022-09-09T11:42:24;19.40;99.90
18932;DHT22;9598;50.954;3.112;2022-09-09T11:47:29;19.30;99.90
18932;DHT22;9598;50.954;3.112;2022-09-09T11:52:37;19.30;99.90
18932;DHT22;9598;50.954;3.112;2022-09-09T11:57:41;19.20;99.90
18932;DHT22;9598;50.954;3.112;2022-09-09T12:02:49;19.10;99.90
18932;DHT22;9598;50.954;3.112;2022-09-09T12:07:55;19.00;99.90
18932;DHT22;9598;50.954;3.112;2022-09-09T12:13:15;18.90;99.90
18932;DHT22;9598;50.954;3.112;2022-09-09T12:18:23;18.90;99.90
18932;DHT22;9598;50.954;3.112;2022-09-09T12:23:32;18.80;99.90
18932;DHT22;9598;50.954;3.112;2022-09-09T12:28:49;18.80;99.90
18932;DHT22;9598;50.954;3.112;2022-09-09T12:33:53;18.80;99.90
18932;DHT22;9598;50.954;3.112;2022-09-09T12:38:59;18.90;99.90
18932;DHT22;9598;50.954;3.112;2022-09-09T12:44:12;19.00;99.90
18932;DHT22;9598;50.954;3.112;2022-09-09T12:49:28;19.10;99.90
18932;DHT22;9598;50.954;3.112;2022-09-09T12:54:36;19.10;99.90
18932;DHT22;9598;50.954;3.112;2022-09-09T12:59:42;19.10;99.90
18932;DHT22;9598;50.954;3.112;2022-09-09T13:04:46;19.30;99.90
18932;DHT22;9598;50.954;3.112;2022-09-09T13:09:48;19.50;99.90
18932;DHT22;9598;50.954;3.112;2022-09-09T13:14:54;19.50;99.90
18932;DHT22;9598;50.954;3.112;2022-09-09T13:19:57;19.50;99.90
18932;DHT22;9598;50.954;3.112;2022-09-09T13:25:00;19.50;99.90
18932;DHT22;9598;50.954;3.112;2022-09-09T13:30:21;19.50;99.90
18932;DHT22;9598;50.954;3.112;2022-09-09T13:35:24;19.50;99.90
18932;DHT22;9598;50.954;3.112;2022-09-09T13:40:26;19.60;99.90
18932;DHT22;9598;50.954;3.112;2022-09-09T13:45:30;19.70;99.90
18932;DHT22;9598;50.954;3.112;2022-09-09T13:50:35;19.70;99.90
18932;DHT22;9598;50.954;3.112;2022-09-09T13:55:37;19.80;99.90
18932;DHT22;9598;50.954;3.112;2022-09-09T14:00:41;19.80;99.90
18932;DHT22;9598;50.954;3.112;2022-09-09T14:05:44;19.90;99.90
18932;DHT22;9598;50.954;3.112;2022-09-09T14:10:46;20.00;99.90
18932;DHT22;9598;50.954;3.112;2022-09-09T14:15:50;20.10;99.90
18932;DHT22;9598;50.954;3.112;2022-09-09T14:20:53;20.10;99.90
18932;DHT22;9598;50.954;3.112;2022-09-09T14:25:55;20.10;99.90
18932;DHT22;9598;50.954;3.112;2022-09-09T14:31:00;20.20;99.90
18932;DHT22;9598;50.954;3.112;2022-09-09T14:36:03;20.30;99.90
18932;DHT22;9598;50.954;3.112;2022-09-09T14:41:06;20.30;99.90
18932;DHT22;9598;50.954;3.112;2022-09-09T14:46:11;20.30;99.90
18932;DHT22;9598;50.954;3.112;2022-09-09T14:51:14;20.30;99.90
18932;DHT22;9598;50.954;3.112;2022-09-09T14:56:19;20.30;99.90
18932;DHT22;9598;50.954;3.112;2022-09-09T15:01:24;20.20;99.90
18932;DHT22;9598;50.954;3.112;2022-09-09T15:06:29;20.10;99.90
18932;DHT22;9598;50.954;3.112;2022-09-09T15:11:35;20.10;99.90
18932;DHT22;9598;50.954;3.112;2022-09-09T15:16:40;20.00;99.90
18932;DHT22;9598;50.954;3.112;2022-09-09T15:21:42;19.90;99.90
18932;DHT22;9598;50.954;3.112;2022-09-09T15:26:44;19.80;99.90
18932;DHT22;9598;50.954;3.112;2022-09-09T15:31:48;19.90;99.90
18932;DHT22;9598;50.954;3.112;2022-09-09T15:36:50;19.90;99.90
18932;DHT22;9598;50.954;3.112;2022-09-09T15:41:52;20.00;99.90
18932;DHT22;9598;50.954;3.112;2022-09-09T15:46:55;20.10;99.90
18932;DHT22;9598;50.954;3.112;2022-09-09T15:51:58;20.30;99.90
18932;DHT22;9598;50.954;3.112;2022-09-09T15:57:05;20.40;99.90
18932;DHT22;9598;50.954;3.112;2022-09-09T16:02:10;20.50;99.90
18932;DHT22;9598;50.954;3.112;2022-09-09T16:07:12;20.40;99.90
18932;DHT22;9598;50.954;3.112;2022-09-09T16:12:14;20.40;99.90
18932;DHT22;9598;50.954;3.112;2022-09-09T16:17:18;20.30;99.90
18932;DHT22;9598;50.954;3.112;2022-09-09T16:22:21;20.20;99.90
18932;DHT22;9598;50.954;3.112;2022-09-09T16:27:25;20.10;99.90
18932;DHT22;9598;50.954;3.112;2022-09-09T16:32:28;20.10;99.90
18932;DHT22;9598;50.954;3.112;2022-09-09T16:37:30;20.10;99.90
18932;DHT22;9598;50.954;3.112;2022-09-09T16:42:34;20.10;99.90
18932;DHT22;9598;50.954;3.112;2022-09-09T16:47:38;20.00;99.90
18932;DHT22;9598;50.954;3.112;2022-09-09T16:52:40;20.00;99.90
18932;DHT22;9598;50.954;3.112;2022-09-09T16:57:42;19.90;99.90
18932;DHT22;9598;50.954;3.112;2022-09-09T17:02:45;19.90;99.90
18932;DHT22;9598;50.954;3.112;2022-09-09T17:07:47;19.90;99.90
18932;DHT22;9598;50.954;3.112;2022-09-09T17:12:49;19.80;99.90
18932;DHT22;9598;50.954;3.112;2022-09-09T17:17:52;19.70;99.90
18932;DHT22;9598;50.954;3.112;2022-09-09T17:22:55;19.70;99.90
18932;DHT22;9598;50.954;3.112;2022-09-09T17:27:57;19.60;99.90
18932;DHT22;9598;50.954;3.112;2022-09-09T17:33:02;19.50;99.90
18932;DHT22;9598;50.954;3.112;2022-09-09T17:38:04;19.50;99.90
18932;DHT22;9598;50.954;3.112;2022-09-09T17:43:06;19.40;99.90
18932;DHT22;9598;50.954;3.112;2022-09-09T17:48:10;19.30;99.90
18932;DHT22;9598;50.954;3.112;2022-09-09T17:53:12;19.30;99.90
18932;DHT22;9598;50.954;3.112;2022-09-09T17:58:14;19.30;99.90
18932;DHT22;9598;50.954;3.112;2022-09-09T18:03:18;19.20;99.90
18932;DHT22;9598;50.954;3.112;2022-09-09T18:08:20;19.20;99.90
18932;DHT22;9598;50.954;3.112;2022-09-09T18:13:22;19.10;99.90
18932;DHT22;9598;50.954;3.112;2022-09-09T18:18:26;19.10;99.90
18932;DHT22;9598;50.954;3.112;2022-09-09T18:23:29;19.10;99.90
18932;DHT22;9598;50.954;3.112;2022-09-09T18:28:32;19.00;99.90
18932;DHT22;9598;50.954;3.112;2022-09-09T18:33:38;19.00;99.90
18932;DHT22;9598;50.954;3.112;2022-09-09T18:38:41;19.00;99.90
18932;DHT22;9598;50.954;3.112;2022-09-09T18:43:44;19.00;99.90
18932;DHT22;9598;50.954;3.112;2022-09-09T18:48:48;18.90;99.90
18932;DHT22;9598;50.954;3.112;2022-09-09T18:53:52;18.90;99.90
18932;DHT22;9598;50.954;3.112;2022-09-09T18:58:57;18.80;99.90
18932;DHT22;9598;50.954;3.112;2022-09-09T19:04:02;18.80;99.90
18932;DHT22;9598;50.954;3.112;2022-09-09T19:09:04;18.70;99.90
18932;DHT22;9598;50.954;3.112;2022-09-09T19:14:07;18.70;99.90
18932;DHT22;9598;50.954;3.112;2022-09-09T19:19:14;18.70;99.90
18932;DHT22;9598;50.954;3.112;2022-09-09T19:24:18;18.70;99.90
18932;DHT22;9598;50.954;3.112;2022-09-09T19:29:22;18.60;99.90
18932;DHT22;9598;50.954;3.112;2022-09-09T19:34:26;18.60;99.90
18932;DHT22;9598;50.954;3.112;2022-09-09T19:39:28;18.60;99.90
18932;DHT22;9598;50.954;3.112;2022-09-09T19:44:32;18.70;99.90
18932;DHT22;9598;50.954;3.112;2022-09-09T19:49:38;18.60;99.90
18932;DHT22;9598;50.954;3.112;2022-09-09T19:54:40;18.60;99.90
18932;DHT22;9598;50.954;3.112;2022-09-09T19:59:43;18.60;99.90
18932;DHT22;9598;50.954;3.112;2022-09-09T20:04:49;18.50;99.90
18932;DHT22;9598;50.954;3.112;2022-09-09T20:09:51;18.50;99.90
18932;DHT22;9598;50.954;3.112;2022-09-09T20:14:54;18.50;99.90
18932;DHT22;9598;50.954;3.112;2022-09-09T20:19:57;18.40;99.90
18932;DHT22;9598;50.954;3.112;2022-09-09T20:25:00;18.40;99.90
18932;DHT22;9598;50.954;3.112;2022-09-09T20:30:02;18.40;99.90
18932;DHT22;9598;50.954;3.112;2022-09-09T20:35:06;18.30;99.90
18932;DHT22;9598;50.954;3.112;2022-09-09T20:40:09;18.30;99.90
18932;DHT22;9598;50.954;3.112;2022-09-09T20:45:11;18.30;99.90
18932;DHT22;9598;50.954;3.112;2022-09-09T20:50:17;18.20;99.90
18932;DHT22;9598;50.954;3.112;2022-09-09T20:55:19;18.20;99.90
18932;DHT22;9598;50.954;3.112;2022-09-09T21:00:21;18.20;99.90
18932;DHT22;9598;50.954;3.112;2022-09-09T21:05:24;18.10;99.90
18932;DHT22;9598;50.954;3.112;2022-09-09T21:10:27;18.10;99.90
18932;DHT22;9598;50.954;3.112;2022-09-09T21:15:29;18.10;99.90
18932;DHT22;9598;50.954;3.112;2022-09-09T21:20:35;18.10;99.90
18932;DHT22;9598;50.954;3.112;2022-09-09T21:25:37;18.10;99.90
18932;DHT22;9598;50.954;3.112;2022-09-09T21:30:40;18.10;99.90
18932;DHT22;9598;50.954;3.112;2022-09-09T21:35:44;18.10;99.90
18932;DHT22;9598;50.954;3.112;2022-09-09T21:40:46;18.10;99.90
18932;DHT22;9598;50.954;3.112;2022-09-09T21:45:49;18.10;99.90
18932;DHT22;9598;50.954;3.112;2022-09-09T21:50:53;18.10;99.90
18932;DHT22;9598;50.954;3.112;2022-09-09T21:56:00;18.10;99.90
18932;DHT22;9598;50.954;3.112;2022-09-09T22:01:07;18.10;99.90
18932;DHT22;9598;50.954;3.112;2022-09-09T22:06:13;18.10;99.90
18932;DHT22;9598;50.954;3.112;2022-09-09T22:11:18;18.10;99.90
18932;DHT22;9598;50.954;3.112;2022-09-09T22:16:22;18.00;99.90
18932;DHT22;9598;50.954;3.112;2022-09-09T22:21:29;17.90;99.90
18932;DHT22;9598;50.954;3.112;2022-09-09T22:26:34;17.90;99.90
18932;DHT22;9598;50.954;3.112;2022-09-09T22:31:37;17.80;99.90
18932;DHT22;9598;50.954;3.112;2022-09-09T22:36:41;17.80;99.90
18932;DHT22;9598;50.954;3.112;2022-09-09T22:41:43;17.70;99.90
18932;DHT22;9598;50.954;3.112;2022-09-09T22:46:45;17.70;99.90
18932;DHT22;9598;50.954;3.112;2022-09-09T22:51:48;17.70;99.90
18932;DHT22;9598;50.954;3.112;2022-09-09T22:56:51;17.70;99.90
18932;DHT22;9598;50.954;3.112;2022-09-09T23:01:53;17.70;99.90
18932;DHT22;9598;50.954;3.112;2022-09-09T23:06:57;17.60;99.90
18932;DHT22;9598;50.954;3.112;2022-09-09T23:12:00;17.70;99.90
18932;DHT22;9598;50.954;3.112;2022-09-09T23:17:02;17.60;99.90
18932;DHT22;9598;50.954;3.112;2022-09-09T23:22:06;17.60;99.90
18932;DHT22;9598;50.954;3.112;2022-09-09T23:27:08;17.60;99.90
18932;DHT22;9598;50.954;3.112;2022-09-09T23:32:10;17.60;99.90
18932;DHT22;9598;50.954;3.112;2022-09-09T23:37:16;17.60;99.90
18932;DHT22;9598;50.954;3.112;2022-09-09T23:42:18;17.60;99.90
18932;DHT22;9598;50.954;3.112;2022-09-09T23:47:20;17.60;99.90
18932;DHT22;9598;50.954;3.112;2022-09-09T23:52:24;17.50;99.90
18932;DHT22;9598;50.954;3.112;2022-09-09T23:57:27;17.50;99.90
